This is the latest recevied weather packets stored in our database for station/object KC4LZN. If no packets are shown the sender has not sent any weather packets the latest 10 day(s).
| Time | Temp. | Humidity | Pressure | Rain* | Wind** | Luminosity | Snow |
|---|---|---|---|---|---|---|---|
| 1777313090 | 28.33° C | 63% | 1018 hPa | 0 mm | - | 934 W/m² | - |
| 1777312785 | 27.78° C | 63% | 1018 hPa | 0 mm | - | 885 W/m² | - |
| 1777312482 | 28.33° C | 64% | 1017.9 hPa | 0 mm | - | 876 W/m² | - |
| 1777312180 | 27.78° C | 65% | 1018.2 hPa | 0 mm | - | 877 W/m² | - |
| 1777311878 | 27.78° C | 66% | 1018.1 hPa | 0 mm | - | 888 W/m² | - |
| 1777311574 | 27.22° C | 67% | 1018.2 hPa | 0 mm | - | 918 W/m² | - |
| 1777311272 | 27.22° C | 67% | 1018.1 hPa | 0 mm | - | 636 W/m² | - |
| 1777310969 | 27.78° C | 65% | 1018.3 hPa | 0 mm | - | 970 W/m² | - |
| 1777310667 | 28.33° C | 66% | 1018 hPa | 0 mm | - | 1062 W/m² | - |
| 1777310364 | 27.78° C | 64% | 1018 hPa | 0 mm | - | 934 W/m² | - |
| 1777310061 | 27.78° C | 63% | 1017.8 hPa | 0 mm | - | 946 W/m² | - |
| 1777309759 | 27.78° C | 64% | 1017.9 hPa | 0 mm | - | 1001 W/m² | - |
| 1777309457 | 27.78° C | 63% | 1018 hPa | 0 mm | - | 963 W/m² | - |
| 1777309154 | 26.11° C | 70% | 1018 hPa | 0 mm | - | 314 W/m² | - |
| 1777308851 | 26.67° C | 69% | 1018 hPa | 0 mm | - | 196 W/m² | - |
| 1777308546 | 27.22° C | 69% | 1018.1 hPa | 0 mm | - | 386 W/m² | - |
| 1777308242 | 27.22° C | 68% | 1018.1 hPa | 0 mm | - | 540 W/m² | - |
| 1777307938 | 27.22° C | 66% | 1018.1 hPa | 0 mm | - | 940 W/m² | - |
| 1777307636 | 26.67° C | 67% | 1018 hPa | 0 mm | - | 312 W/m² | - |
| 1777307332 | 27.78° C | 67% | 1018.1 hPa | 0 mm | - | 306 W/m² | - |
| 1777307030 | 27.78° C | 65% | 1018.3 hPa | 0 mm | - | 899 W/m² | - |
| 1777306727 | 28.33° C | 65% | 1018.1 hPa | 0 mm | - | 290 W/m² | - |
| 1777306425 | 27.22° C | 67% | 1018.2 hPa | 0 mm | - | 856 W/m² | - |
| 1777306125 | 27.22° C | 68% | 1018.1 hPa | 0 mm | - | 853 W/m² | - |
| 1777305821 | 27.78° C | 67% | 1018.3 hPa | 0 mm | - | 856 W/m² | - |
* Rain latest hour (hover to see other rain measurements)
** Current wind speed in m/s (hover to see current wind gust speed)